createdAt,value
2022-11-22T00:01:26.972Z,4.42
2022-11-22T00:03:56.558Z,4.37
2022-11-22T00:06:24.738Z,4.35
2022-11-22T00:08:52.867Z,4.31
2022-11-22T00:11:21.083Z,4.26
2022-11-22T00:13:49.410Z,4.21
2022-11-22T00:16:17.641Z,4.19
2022-11-22T00:18:45.850Z,4.17
2022-11-22T00:21:15.425Z,4.16
2022-11-22T00:23:44.250Z,4.18
2022-11-22T00:26:12.524Z,4.18
2022-11-22T00:28:40.872Z,4.20
2022-11-22T00:31:09.246Z,4.22
2022-11-22T00:33:37.461Z,4.24
2022-11-22T00:36:06.279Z,4.24
2022-11-22T00:38:35.907Z,4.25
2022-11-22T00:41:04.237Z,4.23
2022-11-22T00:43:32.713Z,4.23
2022-11-22T00:46:01.337Z,4.22
2022-11-22T00:48:29.951Z,4.23
2022-11-22T00:50:58.234Z,4.24
2022-11-22T00:53:26.996Z,4.28
2022-11-22T00:55:56.598Z,4.31
2022-11-22T00:58:24.828Z,4.34
2022-11-22T01:00:56.452Z,4.37
2022-11-22T01:03:25.188Z,4.38
2022-11-22T01:05:53.608Z,4.40
2022-11-22T01:08:21.895Z,4.41
2022-11-22T01:10:50.306Z,4.42
2022-11-22T01:13:19.895Z,4.41
2022-11-22T01:15:48.135Z,4.41
2022-11-22T01:18:16.336Z,4.42
2022-11-22T01:20:44.674Z,4.43
2022-11-22T01:23:12.965Z,4.43
2022-11-22T01:25:44.726Z,4.44
2022-11-22T01:28:13.404Z,4.44
2022-11-22T01:30:44.431Z,4.45
2022-11-22T01:33:13.264Z,4.48
2022-11-22T01:35:41.662Z,4.48
2022-11-22T01:38:10.480Z,4.46
2022-11-22T01:40:38.964Z,4.49
2022-11-22T01:43:16.332Z,4.50
2022-11-22T01:45:51.709Z,4.54
2022-11-22T01:48:35.517Z,4.54
2022-11-22T01:51:08.620Z,4.56
2022-11-22T01:53:39.779Z,4.57
2022-11-22T01:56:14.682Z,4.58
2022-11-22T01:58:46.556Z,4.59
2022-11-22T02:01:16.409Z,4.59
2022-11-22T02:03:48.366Z,4.59
2022-11-22T02:06:18.611Z,4.59
2022-11-22T02:08:55.214Z,4.59
2022-11-22T02:11:27.390Z,4.60
2022-11-22T02:13:58.635Z,4.60
2022-11-22T02:16:28.265Z,4.62
2022-11-22T02:18:56.471Z,4.61
2022-11-22T02:21:24.904Z,4.65
2022-11-22T02:23:59.747Z,4.65
2022-11-22T02:26:31.017Z,4.66
2022-11-22T02:29:06.910Z,4.67
2022-11-22T02:31:43.469Z,4.67
2022-11-22T02:34:12.427Z,4.67
2022-11-22T02:36:45.514Z,4.69
2022-11-22T02:39:17.512Z,4.72
2022-11-22T02:41:49.051Z,4.71
2022-11-22T02:44:17.940Z,4.71
2022-11-22T02:46:51.660Z,4.69
2022-11-22T02:49:21.199Z,4.69
2022-11-22T02:51:49.985Z,4.72
2022-11-22T02:54:19.868Z,4.74
2022-11-22T02:56:49.649Z,4.73
2022-11-22T02:59:17.904Z,4.75
2022-11-22T03:01:47.472Z,4.75
2022-11-22T03:04:24.805Z,4.75
2022-11-22T03:06:58.250Z,4.77
2022-11-22T03:09:28.643Z,4.78
2022-11-22T03:11:58.577Z,4.80
2022-11-22T03:14:27.189Z,4.81
2022-11-22T03:16:55.688Z,4.81
2022-11-22T03:19:24.072Z,4.80
2022-11-22T03:21:52.351Z,4.80
2022-11-22T03:24:20.833Z,4.80
2022-11-22T03:26:50.318Z,4.80
2022-11-22T03:29:20.275Z,4.81
2022-11-22T03:31:49.207Z,4.80
2022-11-22T03:34:17.855Z,4.79
2022-11-22T03:36:46.157Z,4.79
2022-11-22T03:39:14.421Z,4.79
2022-11-22T03:41:42.655Z,4.81
2022-11-22T03:44:10.928Z,4.83
2022-11-22T03:46:40.487Z,4.85
2022-11-22T03:49:08.871Z,4.85
2022-11-22T03:51:37.093Z,4.88
2022-11-22T03:54:05.770Z,4.91
2022-11-22T03:56:34.096Z,4.92
2022-11-22T03:59:02.446Z,4.94
2022-11-22T04:01:30.925Z,4.95
2022-11-22T04:04:00.585Z,5.00
2022-11-22T04:06:28.808Z,5.02
2022-11-22T04:08:57.012Z,5.02
2022-11-22T04:11:25.325Z,5.03
2022-11-22T04:14:11.289Z,5.04
2022-11-22T04:16:39.533Z,5.04
2022-11-22T04:19:09.367Z,5.07
2022-11-22T04:21:36.612Z,5.06
2022-11-22T04:24:25.278Z,5.07
2022-11-22T04:26:55.288Z,5.08
2022-11-22T04:29:24.107Z,5.10
2022-11-22T04:32:10.643Z,5.10
2022-11-22T04:34:40.237Z,5.12
2022-11-22T04:37:08.644Z,5.15
2022-11-22T04:39:36.970Z,5.16
2022-11-22T04:42:23.245Z,5.17
2022-11-22T04:44:51.500Z,5.18
2022-11-22T04:47:34.392Z,5.19
2022-11-22T04:50:26.213Z,5.19
2022-11-22T04:52:55.887Z,5.19
2022-11-22T04:55:24.528Z,5.22
2022-11-22T04:57:59.206Z,5.23
2022-11-22T05:00:29.122Z,5.24
2022-11-22T05:02:58.312Z,5.25
2022-11-22T05:05:28.679Z,5.28
2022-11-22T05:07:57.015Z,5.30
2022-11-22T05:10:27.055Z,5.33
2022-11-22T05:12:56.071Z,5.36
2022-11-22T05:15:24.604Z,5.37
2022-11-22T05:17:52.925Z,5.39
2022-11-22T05:20:21.240Z,5.41
2022-11-22T05:23:08.133Z,5.42
2022-11-22T05:25:36.352Z,5.41
2022-11-22T05:28:04.603Z,5.42
2022-11-22T05:30:32.894Z,5.43
2022-11-22T05:33:01.133Z,5.47
2022-11-22T05:35:29.564Z,5.45
2022-11-22T05:37:59.495Z,5.49
2022-11-22T05:40:28.352Z,5.49
2022-11-22T05:42:57.993Z,5.49
2022-11-22T05:45:26.688Z,5.50
2022-11-22T05:47:54.920Z,5.52
2022-11-22T05:50:23.945Z,5.54
2022-11-22T05:52:52.207Z,5.57
2022-11-22T05:55:21.934Z,5.59
2022-11-22T05:57:50.177Z,5.60
2022-11-22T06:00:20.419Z,5.63
2022-11-22T06:02:48.691Z,5.67
2022-11-22T06:05:17.143Z,5.68
2022-11-22T06:07:45.821Z,5.70
2022-11-22T06:10:14.193Z,5.70
2022-11-22T06:12:43.770Z,5.71
2022-11-22T06:15:12.557Z,5.73
2022-11-22T06:17:40.779Z,5.72
2022-11-22T06:20:11.137Z,5.74
2022-11-22T06:22:39.463Z,5.73
2022-11-22T06:25:09.382Z,5.74
2022-11-22T06:27:37.645Z,5.75
2022-11-22T06:30:09.688Z,5.77
2022-11-22T06:32:38.062Z,5.77
2022-11-22T06:35:07.407Z,5.77
2022-11-22T06:37:35.647Z,5.75
2022-11-22T06:40:04.239Z,5.72
2022-11-22T06:42:32.472Z,5.69
2022-11-22T06:45:00.697Z,5.67
2022-11-22T06:47:30.216Z,5.69
2022-11-22T06:49:58.453Z,5.69
2022-11-22T06:52:26.694Z,5.72
2022-11-22T06:54:54.928Z,5.74
2022-11-22T06:57:23.079Z,5.78
2022-11-22T06:59:51.278Z,5.80
2022-11-22T07:02:19.519Z,5.83
2022-11-22T07:05:09.797Z,5.87
2022-11-22T07:07:37.383Z,5.87
2022-11-22T07:10:06.830Z,5.92
2022-11-22T07:12:35.136Z,5.95
2022-11-22T07:15:03.418Z,5.99
2022-11-22T07:17:31.688Z,6.04
2022-11-22T07:20:01.556Z,6.08
2022-11-22T07:22:29.780Z,6.10
2022-11-22T07:24:58.009Z,6.14
2022-11-22T07:27:26.283Z,6.17
2022-11-22T07:29:54.507Z,6.20
2022-11-22T07:32:22.774Z,6.19
2022-11-22T07:34:51.568Z,6.24
2022-11-22T07:37:21.168Z,6.26
2022-11-22T07:39:49.496Z,6.28
2022-11-22T07:42:21.151Z,6.32
2022-11-22T07:44:51.949Z,6.33
2022-11-22T07:47:23.057Z,6.37
2022-11-22T07:49:51.701Z,6.40
2022-11-22T07:52:21.307Z,6.44
2022-11-22T07:54:49.659Z,6.47
2022-11-22T07:57:17.857Z,6.48
2022-11-22T07:59:46.012Z,6.53
2022-11-22T08:02:14.286Z,6.55
2022-11-22T08:04:42.509Z,6.59
2022-11-22T08:07:11.116Z,6.61
2022-11-22T08:09:40.731Z,6.67
2022-11-22T08:12:09.099Z,6.73
2022-11-22T08:14:37.632Z,6.79
2022-11-22T08:17:05.868Z,6.86
2022-11-22T08:19:35.933Z,6.91
2022-11-22T08:22:04.149Z,6.95
2022-11-22T08:24:32.790Z,7.00
2022-11-22T08:27:02.607Z,7.06
2022-11-22T08:29:31.080Z,7.13
2022-11-22T08:31:59.819Z,7.22
2022-11-22T08:34:28.065Z,7.27
2022-11-22T08:36:56.365Z,7.37
2022-11-22T08:39:24.645Z,7.42
2022-11-22T08:41:52.893Z,7.48
2022-11-22T08:44:22.566Z,7.54
2022-11-22T08:46:51.726Z,7.58
2022-11-22T08:49:20.092Z,7.63
2022-11-22T08:51:48.445Z,7.67
2022-11-22T08:54:17.350Z,7.73
2022-11-22T08:56:45.664Z,7.77
2022-11-22T08:59:13.906Z,7.79
2022-11-22T09:01:43.673Z,7.81
2022-11-22T09:04:12.113Z,7.86
2022-11-22T09:09:44.457Z,7.93
2022-11-22T09:12:13.066Z,7.99
2022-11-22T09:14:41.694Z,8.05
2022-11-22T09:17:17.313Z,8.10
2022-11-22T09:19:46.241Z,8.12
2022-11-22T09:22:14.510Z,8.13
2022-11-22T09:24:42.660Z,8.14
2022-11-22T09:27:10.896Z,8.17
2022-11-22T09:29:39.119Z,8.20
2022-11-22T09:32:12.087Z,8.22
2022-11-22T09:34:40.313Z,8.29
2022-11-22T09:37:08.552Z,8.35
2022-11-22T09:39:36.736Z,8.41
2022-11-22T09:42:38.542Z,8.46
2022-11-22T09:45:36.684Z,8.47
2022-11-22T09:48:23.098Z,8.51
2022-11-22T09:51:04.290Z,8.58
2022-11-22T09:53:39.314Z,8.61
2022-11-22T09:56:13.279Z,8.61
2022-11-22T09:58:47.696Z,8.63
2022-11-22T10:01:23.487Z,8.64
2022-11-22T10:04:01.733Z,8.64
2022-11-22T10:06:35.257Z,8.68
2022-11-22T10:09:24.503Z,8.69
2022-11-22T10:11:58.372Z,8.67
2022-11-22T10:14:46.408Z,8.66
2022-11-22T10:17:31.083Z,8.67
2022-11-22T10:20:08.179Z,8.73
2022-11-22T10:22:36.671Z,8.78
2022-11-22T10:25:17.294Z,8.85
2022-11-22T10:27:50.188Z,8.91
2022-11-22T10:30:21.791Z,8.96
2022-11-22T10:33:01.744Z,9.02
2022-11-22T10:35:49.946Z,9.03
2022-11-22T10:39:07.429Z,9.04
2022-11-22T10:41:51.394Z,9.06
2022-11-22T10:44:34.676Z,9.08
2022-11-22T10:47:13.533Z,9.08
2022-11-22T10:49:53.734Z,9.05
2022-11-22T10:52:35.494Z,9.06
2022-11-22T10:55:19.551Z,9.09
2022-11-22T10:57:58.840Z,9.14
2022-11-22T11:00:31.631Z,9.15
2022-11-22T11:03:27.255Z,9.12
2022-11-22T11:06:21.740Z,9.14
2022-11-22T11:09:48.108Z,9.22
2022-11-22T11:11:46.905Z,9.32
2022-11-22T11:14:30.004Z,9.44
2022-11-22T11:16:59.420Z,9.44
2022-11-22T11:19:31.623Z,9.32
2022-11-22T11:22:12.997Z,9.17
2022-11-22T11:24:43.750Z,9.08
2022-11-22T11:27:13.238Z,9.03
2022-11-22T11:29:45.121Z,9.03
2022-11-22T11:32:17.770Z,9.01
2022-11-22T11:34:59.491Z,9.01
2022-11-22T11:37:34.765Z,8.98
2022-11-22T11:40:04.751Z,8.96
2022-11-22T11:42:37.118Z,9.01
2022-11-22T11:45:29.166Z,9.12
2022-11-22T11:47:57.556Z,9.22
2022-11-22T11:50:28.791Z,9.28
2022-11-22T11:53:04.052Z,9.32
2022-11-22T11:55:37.331Z,9.40
2022-11-22T11:58:17.921Z,9.50
2022-11-22T12:00:47.200Z,9.56
2022-11-22T12:03:20.382Z,9.60
2022-11-22T12:05:48.622Z,9.69
2022-11-22T12:08:33.141Z,9.74
2022-11-22T12:11:08.840Z,9.80
2022-11-22T12:14:12.323Z,9.86
2022-11-22T12:16:36.907Z,9.92
2022-11-22T12:19:24.394Z,9.92
2022-11-22T12:22:00.223Z,9.92
2022-11-22T12:25:02.642Z,9.92
2022-11-22T12:27:26.998Z,9.93
2022-11-22T12:29:55.467Z,9.95
2022-11-22T12:32:29.291Z,9.92
2022-11-22T12:35:03.279Z,9.93
2022-11-22T12:37:38.222Z,9.96
2022-11-22T12:40:16.284Z,9.91
2022-11-22T12:42:50.226Z,9.95
2022-11-22T12:45:28.556Z,9.93
2022-11-22T12:48:02.029Z,9.91
2022-11-22T12:50:39.292Z,9.86
2022-11-22T12:53:14.697Z,9.82
2022-11-22T12:55:49.967Z,9.79
2022-11-22T12:58:25.743Z,9.77
2022-11-22T13:01:08.697Z,9.73
2022-11-22T13:03:41.424Z,9.69
2022-11-22T13:06:11.880Z,9.66
2022-11-22T13:08:48.806Z,9.63
2022-11-22T13:11:28.437Z,9.61
2022-11-22T13:14:04.648Z,9.58
2022-11-22T13:16:33.649Z,9.54
2022-11-22T13:19:05.675Z,9.52
2022-11-22T13:21:46.808Z,9.47
2022-11-22T13:24:30.749Z,9.44
2022-11-22T13:27:11.225Z,9.40
2022-11-22T13:29:43.185Z,9.41
2022-11-22T13:32:20.838Z,9.39
2022-11-22T13:35:19.596Z,9.37
2022-11-22T13:37:51.480Z,9.34
2022-11-22T13:40:31.151Z,9.35
2022-11-22T13:43:51.730Z,9.32
2022-11-22T13:46:54.073Z,9.32
2022-11-22T13:49:49.464Z,9.31
2022-11-22T13:52:52.195Z,9.28
2022-11-22T13:55:30.575Z,9.28
2022-11-22T13:58:55.588Z,9.25
2022-11-22T14:02:03.171Z,9.25
2022-11-22T14:04:43.412Z,9.24
2022-11-22T14:07:38.420Z,9.23
2022-11-22T14:10:33.090Z,9.21
2022-11-22T14:13:20.485Z,9.21
2022-11-22T14:16:01.141Z,9.21
2022-11-22T14:18:52.401Z,9.17
2022-11-22T14:21:42.067Z,9.15
2022-11-22T14:24:25.754Z,9.13
2022-11-22T14:27:01.513Z,9.10
2022-11-22T14:30:05.247Z,9.08
2022-11-22T14:32:56.960Z,9.06
2022-11-22T14:35:31.426Z,9.05
2022-11-22T14:38:11.424Z,9.04
2022-11-22T14:40:40.949Z,9.03
2022-11-22T14:43:28.904Z,9.00
2022-11-22T14:46:02.891Z,8.98
2022-11-22T14:48:38.571Z,8.97
2022-11-22T14:51:15.539Z,8.95
2022-11-22T14:53:47.484Z,8.92
2022-11-22T14:56:19.165Z,8.90
2022-11-22T14:58:59.984Z,8.88
2022-11-22T15:02:07.312Z,8.86
2022-11-22T15:09:10.055Z,8.81
2022-11-22T15:09:10.450Z,8.79
2022-11-22T15:11:36.575Z,8.75
2022-11-22T15:14:49.435Z,8.74
2022-11-22T15:57:48.925Z,8.58
2022-11-22T16:00:24.383Z,8.58
2022-11-22T16:02:56.691Z,8.58
2022-11-22T16:06:05.313Z,8.57
2022-11-22T16:08:21.941Z,8.56
2022-11-22T16:10:52.080Z,8.57
2022-11-22T16:13:29.935Z,8.58
2022-11-22T16:16:20.447Z,8.56
2022-11-22T16:18:50.813Z,8.55
2022-11-22T16:21:29.305Z,8.55
2022-11-22T16:24:16.829Z,8.53
2022-11-22T16:26:56.285Z,8.52
2022-11-22T16:29:32.882Z,8.51
2022-11-22T16:32:03.437Z,8.52
2022-11-22T16:34:31.730Z,8.52
2022-11-22T16:37:00.048Z,8.52
2022-11-22T16:39:29.166Z,8.52
2022-11-22T16:41:57.691Z,8.52
2022-11-22T16:44:26.577Z,8.52
2022-11-22T16:46:56.293Z,8.51
2022-11-22T16:49:24.484Z,8.51
2022-11-22T16:51:52.841Z,8.50
2022-11-22T16:54:23.809Z,8.49
2022-11-22T16:56:52.147Z,8.49
2022-11-22T16:59:20.399Z,8.49
2022-11-22T17:01:48.839Z,8.50
2022-11-22T17:04:24.247Z,8.47
2022-11-22T17:06:52.782Z,8.46
2022-11-22T17:09:21.281Z,8.46
2022-11-22T17:11:49.616Z,8.45
2022-11-22T17:14:19.634Z,8.48
2022-11-22T17:16:47.997Z,8.48
2022-11-22T17:19:45.410Z,8.48
2022-11-22T17:22:07.085Z,8.48
2022-11-22T17:24:35.909Z,8.48
2022-11-22T17:27:04.281Z,8.49
2022-11-22T17:29:50.742Z,8.49
2022-11-22T17:32:19.902Z,8.46
2022-11-22T17:34:48.248Z,8.47
2022-11-22T17:37:17.977Z,8.47
2022-11-22T17:39:47.649Z,8.49
2022-11-22T17:42:18.128Z,8.50
2022-11-22T17:44:46.321Z,8.51
2022-11-22T17:47:14.564Z,8.49
2022-11-22T17:49:43.179Z,8.49
2022-11-22T17:52:11.462Z,8.50
2022-11-22T17:54:41.180Z,8.49
2022-11-22T17:57:09.496Z,8.50
2022-11-22T17:59:37.722Z,8.49
2022-11-22T18:02:06.629Z,8.45
2022-11-22T18:04:38.399Z,8.44
2022-11-22T18:07:06.774Z,8.42
2022-11-22T18:09:35.573Z,8.43
2022-11-22T18:12:05.849Z,8.45
2022-11-22T18:14:34.667Z,8.46
2022-11-22T18:17:02.978Z,8.48
2022-11-22T18:19:33.271Z,8.48
2022-11-22T18:22:01.741Z,8.48
2022-11-22T18:24:30.016Z,8.48
2022-11-22T18:26:58.368Z,8.49
2022-11-22T18:29:43.442Z,8.49
2022-11-22T18:32:12.442Z,8.52
2022-11-22T18:34:41.450Z,8.53
2022-11-22T18:37:09.805Z,8.54
2022-11-22T18:39:39.988Z,8.56
2022-11-22T18:42:12.143Z,8.56
2022-11-22T18:44:41.932Z,8.56
2022-11-22T18:47:10.331Z,8.56
2022-11-22T18:49:38.635Z,8.56
2022-11-22T18:52:09.672Z,8.58
2022-11-22T18:54:40.211Z,8.59
2022-11-22T18:57:08.971Z,8.58
2022-11-22T18:59:37.324Z,8.59
2022-11-22T19:02:07.482Z,8.60
2022-11-22T19:04:35.912Z,8.60
2022-11-22T19:07:04.188Z,8.56
2022-11-22T19:09:32.375Z,8.51
2022-11-22T19:12:02.512Z,8.51
2022-11-22T19:14:31.073Z,8.50
2022-11-22T19:16:59.493Z,8.50
2022-11-22T19:19:32.143Z,8.51
2022-11-22T19:22:02.928Z,8.53
2022-11-22T19:24:31.595Z,8.52
2022-11-22T19:27:00.132Z,8.52
2022-11-22T19:30:07.706Z,8.51
2022-11-22T19:32:38.350Z,8.48
2022-11-22T19:35:36.630Z,8.47
2022-11-22T19:38:10.473Z,8.54
2022-11-22T19:40:52.954Z,8.53
2022-11-22T19:43:23.265Z,8.50
2022-11-22T19:45:53.229Z,8.49
2022-11-22T19:48:35.459Z,8.47
2022-11-22T19:51:11.989Z,8.39
2022-11-22T19:53:45.236Z,8.45
2022-11-22T19:56:18.396Z,8.45
2022-11-22T19:58:55.641Z,8.49
2022-11-22T20:01:40.601Z,8.51
2022-11-22T20:04:16.744Z,8.51
2022-11-22T20:09:32.543Z,8.59
2022-11-22T20:12:08.651Z,8.60
2022-11-22T20:14:39.110Z,8.61
2022-11-22T20:17:21.989Z,8.60
2022-11-22T20:19:52.279Z,8.60
2022-11-22T20:22:42.168Z,8.65
2022-11-22T20:25:15.413Z,8.62
2022-11-22T20:27:48.355Z,8.64
2022-11-22T20:30:24.351Z,8.61
2022-11-22T20:32:54.590Z,8.58
2022-11-22T20:35:23.456Z,8.56
2022-11-22T20:37:54.552Z,8.56
2022-11-22T20:40:25.457Z,8.51
2022-11-22T20:43:06.136Z,8.55
2022-11-22T20:45:35.548Z,8.54
2022-11-22T20:48:08.170Z,8.55
2022-11-22T20:50:38.029Z,8.52
2022-11-22T20:53:23.556Z,8.52
2022-11-22T20:55:55.099Z,8.52
2022-11-22T20:58:24.814Z,8.55
2022-11-22T21:00:53.503Z,8.50
2022-11-22T21:03:50.852Z,8.54
2022-11-22T21:06:21.762Z,8.42
2022-11-22T21:08:53.158Z,8.50
2022-11-22T21:11:25.368Z,8.52
2022-11-22T21:13:56.392Z,8.53
2022-11-22T21:16:28.612Z,8.54
2022-11-22T21:19:05.784Z,8.51
2022-11-22T21:21:42.540Z,8.49
2022-11-22T21:24:28.917Z,8.50
2022-11-22T21:27:01.817Z,8.54
2022-11-22T21:29:37.141Z,8.54
2022-11-22T21:32:08.922Z,8.55
2022-11-22T21:34:38.652Z,8.59
2022-11-22T21:37:07.825Z,8.54
2022-11-22T21:39:39.840Z,8.61
2022-11-22T21:42:09.844Z,8.62
2022-11-22T21:44:43.004Z,8.53
2022-11-22T21:47:15.335Z,8.61
2022-11-22T21:49:45.043Z,8.61
2022-11-22T21:52:16.573Z,8.57
2022-11-22T21:54:47.099Z,8.65
2022-11-22T21:57:15.474Z,8.69
2022-11-22T21:59:47.012Z,8.70
2022-11-22T22:05:18.655Z,8.69
2022-11-22T22:07:53.147Z,8.65
2022-11-22T22:10:23.657Z,8.66
2022-11-22T22:12:53.739Z,8.74
2022-11-22T22:15:24.371Z,8.76
2022-11-22T22:18:05.712Z,8.70
2022-11-22T22:20:35.569Z,8.72
2022-11-22T22:23:10.744Z,8.73
2022-11-22T22:26:00.684Z,8.70
2022-11-22T22:28:33.063Z,8.72
2022-11-22T22:31:13.630Z,8.74
2022-11-22T22:33:47.290Z,8.63
2022-11-22T22:36:19.155Z,8.67
2022-11-22T22:39:12.164Z,8.73
2022-11-22T22:41:56.165Z,8.74
2022-11-22T22:47:22.966Z,8.72
2022-11-22T22:50:02.570Z,8.79
2022-11-22T22:52:43.921Z,8.78
2022-11-22T22:55:15.518Z,8.79
2022-11-22T22:57:55.322Z,8.80
2022-11-22T23:00:24.737Z,8.82
2022-11-22T23:02:55.786Z,8.82
2022-11-22T23:05:24.750Z,8.83
2022-11-22T23:07:55.908Z,8.84
2022-11-22T23:10:49.756Z,8.81
2022-11-22T23:13:51.069Z,8.80
2022-11-22T23:16:22.527Z,8.84
2022-11-22T23:18:52.043Z,8.86
2022-11-22T23:21:27.095Z,8.83
2022-11-22T23:24:02.272Z,8.85
2022-11-22T23:26:34.849Z,8.89
2022-11-22T23:29:07.480Z,8.91
2022-11-22T23:31:37.803Z,8.92
2022-11-22T23:34:21.776Z,8.92
2022-11-22T23:36:53.612Z,8.96
2022-11-22T23:39:27.680Z,8.98
2022-11-22T23:41:56.164Z,8.97
2022-11-22T23:44:41.019Z,9.00
2022-11-22T23:47:09.325Z,9.02
2022-11-22T23:49:39.917Z,9.05
2022-11-22T23:52:09.760Z,9.02
2022-11-22T23:54:39.317Z,9.07
2022-11-22T23:57:08.156Z,9.10
2022-11-22T23:59:38.173Z,9.08
